sensor_id;sensor_type;location;lat;lon;timestamp;temperature;humidity
20147;DHT22;10234;50.856;15.716;2024-01-15T00:01:42;0.10;99.90
20147;DHT22;10234;50.856;15.716;2024-01-15T00:04:11;0.10;99.90
20147;DHT22;10234;50.856;15.716;2024-01-15T00:06:37;0.90;99.90
20147;DHT22;10234;50.856;15.716;2024-01-15T00:09:05;0.10;99.90
20147;DHT22;10234;50.856;15.716;2024-01-15T00:11:32;0.10;99.90
20147;DHT22;10234;50.856;15.716;2024-01-15T00:13:59;0.10;99.90
20147;DHT22;10234;50.856;15.716;2024-01-15T00:16:25;0.20;99.90
20147;DHT22;10234;50.856;15.716;2024-01-15T00:18:52;0.20;99.90
20147;DHT22;10234;50.856;15.716;2024-01-15T00:21:21;0.20;99.90
20147;DHT22;10234;50.856;15.716;2024-01-15T00:23:48;0.20;99.90
20147;DHT22;10234;50.856;15.716;2024-01-15T00:26:15;0.10;99.90
20147;DHT22;10234;50.856;15.716;2024-01-15T00:28:42;0.10;99.90
20147;DHT22;10234;50.856;15.716;2024-01-15T00:31:09;0.00;99.90
20147;DHT22;10234;50.856;15.716;2024-01-15T00:33:36;0.10;99.90
20147;DHT22;10234;50.856;15.716;2024-01-15T00:36:03;0.10;99.90
20147;DHT22;10234;50.856;15.716;2024-01-15T00:38:31;0.20;99.90
20147;DHT22;10234;50.856;15.716;2024-01-15T00:40:58;0.20;99.90
20147;DHT22;10234;50.856;15.716;2024-01-15T00:43:25;0.20;99.90
20147;DHT22;10234;50.856;15.716;2024-01-15T00:45:52;0.10;99.90
20147;DHT22;10234;50.856;15.716;2024-01-15T00:48:18;0.10;99.90
20147;DHT22;10234;50.856;15.716;2024-01-15T00:50:45;0.10;99.90
20147;DHT22;10234;50.856;15.716;2024-01-15T00:53:12;0.10;99.90
20147;DHT22;10234;50.856;15.716;2024-01-15T00:55:40;0.20;99.90
20147;DHT22;10234;50.856;15.716;2024-01-15T00:58:07;0.20;99.90
20147;DHT22;10234;50.856;15.716;2024-01-15T01:00:34;0.20;99.90
20147;DHT22;10234;50.856;15.716;2024-01-15T01:03:01;0.30;99.90
20147;DHT22;10234;50.856;15.716;2024-01-15T01:05:28;0.20;99.90
20147;DHT22;10234;50.856;15.716;2024-01-15T01:07:54;0.20;99.90
20147;DHT22;10234;50.856;15.716;2024-01-15T01:10:21;0.20;99.90
20147;DHT22;10234;50.856;15.716;2024-01-15T01:12:49;0.20;99.90
20147;DHT22;10234;50.856;15.716;2024-01-15T01:15:16;0.30;99.90
20147;DHT22;10234;50.856;15.716;2024-01-15T01:17:43;0.30;99.90
20147;DHT22;10234;50.856;15.716;2024-01-15T01:20:10;0.30;99.90
20147;DHT22;10234;50.856;15.716;2024-01-15T01:22:37;0.20;99.90
20147;DHT22;10234;50.856;15.716;2024-01-15T01:25:05;0.20;99.90
20147;DHT22;10234;50.856;15.716;2024-01-15T01:27:32;0.20;99.90
20147;DHT22;10234;50.856;15.716;2024-01-15T01:30:00;0.10;99.90
20147;DHT22;10234;50.856;15.716;2024-01-15T01:32:27;0.10;99.90
20147;DHT22;10234;50.856;15.716;2024-01-15T01:34:54;0.10;99.90
20147;DHT22;10234;50.856;15.716;2024-01-15T01:37:21;0.10;99.90
20147;DHT22;10234;50.856;15.716;2024-01-15T01:39:47;0.10;99.90
20147;DHT22;10234;50.856;15.716;2024-01-15T01:42:16;0.10;99.90
20147;DHT22;10234;50.856;15.716;2024-01-15T01:44:43;0.10;99.90
20147;DHT22;10234;50.856;15.716;2024-01-15T01:47:11;0.10;99.90
20147;DHT22;10234;50.856;15.716;2024-01-15T01:49:38;0.20;99.90
20147;DHT22;10234;50.856;15.716;2024-01-15T01:52:06;0.10;99.90
20147;DHT22;10234;50.856;15.716;2024-01-15T01:54:34;0.10;99.90
20147;DHT22;10234;50.856;15.716;2024-01-15T01:57:03;0.10;99.90
20147;DHT22;10234;50.856;15.716;2024-01-15T01:59:30;0.10;99.90
20147;DHT22;10234;50.856;15.716;2024-01-15T02:01:58;0.10;99.90
20147;DHT22;10234;50.856;15.716;2024-01-15T02:04:31;0.10;99.90
20147;DHT22;10234;50.856;15.716;2024-01-15T02:06:59;0.10;99.90
20147;DHT22;10234;50.856;15.716;2024-01-15T02:09:26;0.00;99.90
20147;DHT22;10234;50.856;15.716;2024-01-15T02:11:53;0.00;99.90
20147;DHT22;10234;50.856;15.716;2024-01-15T02:14:20;-0.10;99.90
20147;DHT22;10234;50.856;15.716;2024-01-15T02:16:47;-0.20;99.90
20147;DHT22;10234;50.856;15.716;2024-01-15T02:19:15;-0.30;99.90
20147;DHT22;10234;50.856;15.716;2024-01-15T02:21:44;-0.40;99.90
20147;DHT22;10234;50.856;15.716;2024-01-15T02:24:13;-0.40;99.90
20147;DHT22;10234;50.856;15.716;2024-01-15T02:26:40;-0.80;99.90
20147;DHT22;10234;50.856;15.716;2024-01-15T02:29:07;-0.50;99.90
20147;DHT22;10234;50.856;15.716;2024-01-15T02:31:35;-0.50;99.90
20147;DHT22;10234;50.856;15.716;2024-01-15T02:34:02;-0.50;99.90
20147;DHT22;10234;50.856;15.716;2024-01-15T02:36:28;-0.50;99.90
20147;DHT22;10234;50.856;15.716;2024-01-15T02:38:55;-0.50;99.90
20147;DHT22;10234;50.856;15.716;2024-01-15T02:41:23;-0.60;99.90
20147;DHT22;10234;50.856;15.716;2024-01-15T02:43:50;-0.60;99.90
20147;DHT22;10234;50.856;15.716;2024-01-15T02:46:17;-0.60;99.90
20147;DHT22;10234;50.856;15.716;2024-01-15T02:48:44;-0.50;99.90
20147;DHT22;10234;50.856;15.716;2024-01-15T02:51:11;-0.50;99.90
20147;DHT22;10234;50.856;15.716;2024-01-15T02:53:38;-0.50;99.90
20147;DHT22;10234;50.856;15.716;2024-01-15T02:56:07;-0.50;99.90
20147;DHT22;10234;50.856;15.716;2024-01-15T02:58:35;-0.50;99.90
20147;DHT22;10234;50.856;15.716;2024-01-15T03:01:02;-0.40;99.90
20147;DHT22;10234;50.856;15.716;2024-01-15T03:03:29;-0.40;99.90
20147;DHT22;10234;50.856;15.716;2024-01-15T03:05:56;-0.40;99.90
20147;DHT22;10234;50.856;15.716;2024-01-15T03:08:22;-0.50;99.90
20147;DHT22;10234;50.856;15.716;2024-01-15T03:10:49;-0.30;99.90
20147;DHT22;10234;50.856;15.716;2024-01-15T03:13:16;-0.30;99.90
20147;DHT22;10234;50.856;15.716;2024-01-15T03:15:46;-0.30;99.90
20147;DHT22;10234;50.856;15.716;2024-01-15T03:18:13;-0.40;99.90
20147;DHT22;10234;50.856;15.716;2024-01-15T03:20:39;-0.40;99.90
20147;DHT22;10234;50.856;15.716;2024-01-15T03:23:06;-0.30;99.90
20147;DHT22;10234;50.856;15.716;2024-01-15T03:25:33;-0.20;99.90
20147;DHT22;10234;50.856;15.716;2024-01-15T03:28:00;-0.40;99.90
20147;DHT22;10234;50.856;15.716;2024-01-15T03:30:27;-0.30;99.90
20147;DHT22;10234;50.856;15.716;2024-01-15T03:32:55;-0.30;99.90
20147;DHT22;10234;50.856;15.716;2024-01-15T03:35:22;-0.40;99.90
20147;DHT22;10234;50.856;15.716;2024-01-15T03:37:49;-0.40;99.90
20147;DHT22;10234;50.856;15.716;2024-01-15T03:40:16;-0.30;99.90
20147;DHT22;10234;50.856;15.716;2024-01-15T03:42:43;-0.30;99.90
20147;DHT22;10234;50.856;15.716;2024-01-15T03:45:09;-0.30;99.90
20147;DHT22;10234;50.856;15.716;2024-01-15T03:47:36;-0.30;99.90
20147;DHT22;10234;50.856;15.716;2024-01-15T03:50:05;-0.30;99.90
20147;DHT22;10234;50.856;15.716;2024-01-15T03:52:32;-0.30;99.90
20147;DHT22;10234;50.856;15.716;2024-01-15T03:54:59;-0.30;99.90
20147;DHT22;10234;50.856;15.716;2024-01-15T03:57:26;-0.30;99.90
20147;DHT22;10234;50.856;15.716;2024-01-15T03:59:53;-0.40;99.90
20147;DHT22;10234;50.856;15.716;2024-01-15T04:02:20;-0.40;99.90
20147;DHT22;10234;50.856;15.716;2024-01-15T04:04:46;-0.50;99.90
20147;DHT22;10234;50.856;15.716;2024-01-15T04:07:15;-0.50;99.90
20147;DHT22;10234;50.856;15.716;2024-01-15T04:09:41;-0.60;99.90
20147;DHT22;10234;50.856;15.716;2024-01-15T04:12:08;-0.60;99.90
20147;DHT22;10234;50.856;15.716;2024-01-15T04:14:35;-0.50;99.90
20147;DHT22;10234;50.856;15.716;2024-01-15T04:17:02;-0.50;99.90
20147;DHT22;10234;50.856;15.716;2024-01-15T04:19:29;-0.30;99.90
20147;DHT22;10234;50.856;15.716;2024-01-15T04:21:56;-0.40;99.90
20147;DHT22;10234;50.856;15.716;2024-01-15T04:24:24;-0.40;99.90
20147;DHT22;10234;50.856;15.716;2024-01-15T04:26:51;-0.40;99.90
20147;DHT22;10234;50.856;15.716;2024-01-15T04:29:18;-0.40;99.90
20147;DHT22;10234;50.856;15.716;2024-01-15T04:31:45;-0.50;99.90
20147;DHT22;10234;50.856;15.716;2024-01-15T04:34:12;-0.50;99.90
20147;DHT22;10234;50.856;15.716;2024-01-15T04:36:39;-0.60;99.90
20147;DHT22;10234;50.856;15.716;2024-01-15T04:39:06;-0.70;99.90
20147;DHT22;10234;50.856;15.716;2024-01-15T04:41:35;-0.80;99.90
20147;DHT22;10234;50.856;15.716;2024-01-15T04:44:02;-0.90;99.90
20147;DHT22;10234;50.856;15.716;2024-01-15T04:46:29;-1.00;99.90
20147;DHT22;10234;50.856;15.716;2024-01-15T04:48:56;-1.00;99.90
20147;DHT22;10234;50.856;15.716;2024-01-15T04:51:23;-1.00;99.90
20147;DHT22;10234;50.856;15.716;2024-01-15T04:53:49;-1.00;99.90
20147;DHT22;10234;50.856;15.716;2024-01-15T04:56:16;-1.00;99.90
20147;DHT22;10234;50.856;15.716;2024-01-15T04:58:45;-1.00;99.90
20147;DHT22;10234;50.856;15.716;2024-01-15T05:01:12;-1.10;99.90
20147;DHT22;10234;50.856;15.716;2024-01-15T05:03:40;-1.00;99.90
20147;DHT22;10234;50.856;15.716;2024-01-15T05:06:07;-1.00;99.90
20147;DHT22;10234;50.856;15.716;2024-01-15T05:08:34;-1.00;99.90
20147;DHT22;10234;50.856;15.716;2024-01-15T05:11:01;-0.90;99.90
20147;DHT22;10234;50.856;15.716;2024-01-15T05:13:28;-0.90;99.90
20147;DHT22;10234;50.856;15.716;2024-01-15T05:15:56;-0.80;99.90
20147;DHT22;10234;50.856;15.716;2024-01-15T05:18:23;-0.90;99.90
20147;DHT22;10234;50.856;15.716;2024-01-15T05:20:49;-0.90;99.90
20147;DHT22;10234;50.856;15.716;2024-01-15T05:23:18;-0.90;99.90
20147;DHT22;10234;50.856;15.716;2024-01-15T05:25:44;-1.00;99.90
20147;DHT22;10234;50.856;15.716;2024-01-15T05:28:11;-1.10;99.90
20147;DHT22;10234;50.856;15.716;2024-01-15T05:30:38;-1.10;99.90
20147;DHT22;10234;50.856;15.716;2024-01-15T05:33:06;-1.10;99.90
20147;DHT22;10234;50.856;15.716;2024-01-15T05:35:34;-1.00;99.90
20147;DHT22;10234;50.856;15.716;2024-01-15T05:38:01;-1.00;99.90
20147;DHT22;10234;50.856;15.716;2024-01-15T05:40:28;-1.10;99.90
20147;DHT22;10234;50.856;15.716;2024-01-15T05:42:55;-1.10;99.90
20147;DHT22;10234;50.856;15.716;2024-01-15T05:45:22;-1.10;99.90
20147;DHT22;10234;50.856;15.716;2024-01-15T05:47:49;-1.10;99.90
20147;DHT22;10234;50.856;15.716;2024-01-15T05:50:17;-1.10;99.90
20147;DHT22;10234;50.856;15.716;2024-01-15T05:52:44;-1.00;99.90
20147;DHT22;10234;50.856;15.716;2024-01-15T05:55:11;-1.00;99.90
20147;DHT22;10234;50.856;15.716;2024-01-15T05:57:37;-1.00;99.90
20147;DHT22;10234;50.856;15.716;2024-01-15T06:00:06;-1.00;99.90
20147;DHT22;10234;50.856;15.716;2024-01-15T06:02:34;-1.00;99.90
20147;DHT22;10234;50.856;15.716;2024-01-15T06:05:01;-1.00;99.90
20147;DHT22;10234;50.856;15.716;2024-01-15T06:07:29;-1.00;99.90
20147;DHT22;10234;50.856;15.716;2024-01-15T06:09:57;-0.80;99.90
20147;DHT22;10234;50.856;15.716;2024-01-15T06:12:24;-1.00;99.90
20147;DHT22;10234;50.856;15.716;2024-01-15T06:14:53;-0.90;99.90
20147;DHT22;10234;50.856;15.716;2024-01-15T06:17:20;-1.10;99.90
20147;DHT22;10234;50.856;15.716;2024-01-15T06:19:47;-1.10;99.90
20147;DHT22;10234;50.856;15.716;2024-01-15T06:22:13;-1.00;99.90
20147;DHT22;10234;50.856;15.716;2024-01-15T06:24:43;-1.00;99.90
20147;DHT22;10234;50.856;15.716;2024-01-15T06:27:10;-1.00;99.90
20147;DHT22;10234;50.856;15.716;2024-01-15T06:29:38;-1.00;99.90
20147;DHT22;10234;50.856;15.716;2024-01-15T06:32:05;-0.90;99.90
20147;DHT22;10234;50.856;15.716;2024-01-15T06:34:32;-0.90;99.90
20147;DHT22;10234;50.856;15.716;2024-01-15T06:36:59;-0.90;99.90
20147;DHT22;10234;50.856;15.716;2024-01-15T06:39:26;-0.90;99.90
20147;DHT22;10234;50.856;15.716;2024-01-15T06:41:56;-0.80;99.90
20147;DHT22;10234;50.856;15.716;2024-01-15T06:44:23;-0.80;99.90
20147;DHT22;10234;50.856;15.716;2024-01-15T06:46:52;-0.80;99.90
20147;DHT22;10234;50.856;15.716;2024-01-15T06:49:22;-0.80;99.90
20147;DHT22;10234;50.856;15.716;2024-01-15T06:51:49;-0.80;99.90
20147;DHT22;10234;50.856;15.716;2024-01-15T06:54:16;-0.90;99.90
20147;DHT22;10234;50.856;15.716;2024-01-15T06:56:43;-1.00;99.90
20147;DHT22;10234;50.856;15.716;2024-01-15T06:59:11;-0.90;99.90
20147;DHT22;10234;50.856;15.716;2024-01-15T07:01:38;-0.90;99.90
20147;DHT22;10234;50.856;15.716;2024-01-15T07:04:06;-0.90;99.90
20147;DHT22;10234;50.856;15.716;2024-01-15T07:06:33;-0.90;99.90
20147;DHT22;10234;50.856;15.716;2024-01-15T07:09:00;-0.90;99.90
20147;DHT22;10234;50.856;15.716;2024-01-15T07:11:27;-1.00;99.90
20147;DHT22;10234;50.856;15.716;2024-01-15T07:13:54;-0.90;99.90
20147;DHT22;10234;50.856;15.716;2024-01-15T07:16:22;-1.00;99.90
20147;DHT22;10234;50.856;15.716;2024-01-15T07:18:49;-1.00;99.90
20147;DHT22;10234;50.856;15.716;2024-01-15T07:21:16;-0.90;99.90
20147;DHT22;10234;50.856;15.716;2024-01-15T07:23:42;-0.90;99.90
20147;DHT22;10234;50.856;15.716;2024-01-15T07:26:09;-0.90;99.90
20147;DHT22;10234;50.856;15.716;2024-01-15T07:28:36;-0.90;99.90
20147;DHT22;10234;50.856;15.716;2024-01-15T07:31:04;-0.90;99.90
20147;DHT22;10234;50.856;15.716;2024-01-15T07:33:33;-0.80;99.90
20147;DHT22;10234;50.856;15.716;2024-01-15T07:36:00;-0.70;99.90
20147;DHT22;10234;50.856;15.716;2024-01-15T07:38:28;-0.60;99.90
20147;DHT22;10234;50.856;15.716;2024-01-15T07:40:55;-0.60;99.90
20147;DHT22;10234;50.856;15.716;2024-01-15T07:43:22;-0.50;99.90
20147;DHT22;10234;50.856;15.716;2024-01-15T07:45:49;-0.50;99.90
20147;DHT22;10234;50.856;15.716;2024-01-15T07:48:15;-0.40;99.90
20147;DHT22;10234;50.856;15.716;2024-01-15T07:50:46;-0.40;99.90
20147;DHT22;10234;50.856;15.716;2024-01-15T07:53:14;-0.40;99.90
20147;DHT22;10234;50.856;15.716;2024-01-15T07:55:41;-0.30;99.90
20147;DHT22;10234;50.856;15.716;2024-01-15T07:58:07;-0.30;99.90
20147;DHT22;10234;50.856;15.716;2024-01-15T08:00:35;0.50;99.90
20147;DHT22;10234;50.856;15.716;2024-01-15T08:03:02;-0.10;99.90
20147;DHT22;10234;50.856;15.716;2024-01-15T08:05:29;0.00;99.90
20147;DHT22;10234;50.856;15.716;2024-01-15T08:07:58;0.10;99.90
20147;DHT22;10234;50.856;15.716;2024-01-15T08:10:25;0.20;99.90
20147;DHT22;10234;50.856;15.716;2024-01-15T08:12:52;0.20;99.90
20147;DHT22;10234;50.856;15.716;2024-01-15T08:15:19;0.00;99.90
20147;DHT22;10234;50.856;15.716;2024-01-15T08:17:45;0.20;99.90
20147;DHT22;10234;50.856;15.716;2024-01-15T08:20:12;0.20;99.90
20147;DHT22;10234;50.856;15.716;2024-01-15T08:22:41;0.30;99.90
20147;DHT22;10234;50.856;15.716;2024-01-15T08:25:10;0.30;99.90
20147;DHT22;10234;50.856;15.716;2024-01-15T08:27:38;0.30;99.90
20147;DHT22;10234;50.856;15.716;2024-01-15T08:30:06;0.30;99.90
20147;DHT22;10234;50.856;15.716;2024-01-15T08:32:33;0.30;99.90
20147;DHT22;10234;50.856;15.716;2024-01-15T08:35:02;0.30;99.90
20147;DHT22;10234;50.856;15.716;2024-01-15T08:37:29;0.30;99.90
20147;DHT22;10234;50.856;15.716;2024-01-15T08:39:56;0.20;99.90
20147;DHT22;10234;50.856;15.716;2024-01-15T08:42:25;0.20;99.90
20147;DHT22;10234;50.856;15.716;2024-01-15T08:44:52;0.20;99.90
20147;DHT22;10234;50.856;15.716;2024-01-15T08:47:20;0.10;99.90
20147;DHT22;10234;50.856;15.716;2024-01-15T08:49:47;0.20;99.90
20147;DHT22;10234;50.856;15.716;2024-01-15T08:52:15;0.30;99.90
20147;DHT22;10234;50.856;15.716;2024-01-15T08:54:42;1.00;99.90
20147;DHT22;10234;50.856;15.716;2024-01-15T08:57:09;0.50;99.90
20147;DHT22;10234;50.856;15.716;2024-01-15T08:59:39;0.50;99.90
20147;DHT22;10234;50.856;15.716;2024-01-15T09:02:06;0.50;99.90
20147;DHT22;10234;50.856;15.716;2024-01-15T09:04:34;0.50;99.90
20147;DHT22;10234;50.856;15.716;2024-01-15T09:07:00;0.50;99.90
20147;DHT22;10234;50.856;15.716;2024-01-15T09:09:27;0.60;99.90
20147;DHT22;10234;50.856;15.716;2024-01-15T09:11:54;0.60;99.90
20147;DHT22;10234;50.856;15.716;2024-01-15T09:14:21;0.60;99.90
20147;DHT22;10234;50.856;15.716;2024-01-15T09:16:51;0.60;99.90
20147;DHT22;10234;50.856;15.716;2024-01-15T09:19:18;0.70;99.90
20147;DHT22;10234;50.856;15.716;2024-01-15T09:21:44;0.70;99.90
20147;DHT22;10234;50.856;15.716;2024-01-15T09:24:12;0.60;99.90
20147;DHT22;10234;50.856;15.716;2024-01-15T09:26:38;0.50;99.90
20147;DHT22;10234;50.856;15.716;2024-01-15T09:29:05;0.50;99.90
20147;DHT22;10234;50.856;15.716;2024-01-15T09:31:33;0.50;99.90
20147;DHT22;10234;50.856;15.716;2024-01-15T09:34:01;0.50;99.90
20147;DHT22;10234;50.856;15.716;2024-01-15T09:36:28;1.20;99.90
20147;DHT22;10234;50.856;15.716;2024-01-15T09:38:55;0.40;99.90
20147;DHT22;10234;50.856;15.716;2024-01-15T09:41:22;0.50;99.90
20147;DHT22;10234;50.856;15.716;2024-01-15T09:43:49;0.50;99.90
20147;DHT22;10234;50.856;15.716;2024-01-15T09:46:17;0.40;99.90
20147;DHT22;10234;50.856;15.716;2024-01-15T09:48:44;0.40;99.90
20147;DHT22;10234;50.856;15.716;2024-01-15T09:51:13;0.50;99.90
20147;DHT22;10234;50.856;15.716;2024-01-15T09:53:41;0.70;99.90
20147;DHT22;10234;50.856;15.716;2024-01-15T09:56:08;0.90;99.90
20147;DHT22;10234;50.856;15.716;2024-01-15T09:58:38;1.40;99.90
20147;DHT22;10234;50.856;15.716;2024-01-15T10:01:05;1.00;99.90
20147;DHT22;10234;50.856;15.716;2024-01-15T10:03:33;1.10;99.90
20147;DHT22;10234;50.856;15.716;2024-01-15T10:06:00;1.40;99.90
20147;DHT22;10234;50.856;15.716;2024-01-15T10:08:29;1.40;99.90
20147;DHT22;10234;50.856;15.716;2024-01-15T10:10:56;1.20;99.90
20147;DHT22;10234;50.856;15.716;2024-01-15T10:13:23;1.60;99.70
20147;DHT22;10234;50.856;15.716;2024-01-15T10:15:50;1.70;98.40
20147;DHT22;10234;50.856;15.716;2024-01-15T10:18:17;1.30;98.30
20147;DHT22;10234;50.856;15.716;2024-01-15T10:20:45;1.20;99.20
20147;DHT22;10234;50.856;15.716;2024-01-15T10:23:12;1.30;99.50
20147;DHT22;10234;50.856;15.716;2024-01-15T10:25:41;1.30;99.10
20147;DHT22;10234;50.856;15.716;2024-01-15T10:28:08;1.40;98.70
20147;DHT22;10234;50.856;15.716;2024-01-15T10:30:35;1.30;98.90
20147;DHT22;10234;50.856;15.716;2024-01-15T10:33:03;1.50;98.80
20147;DHT22;10234;50.856;15.716;2024-01-15T10:35:31;1.30;97.90
20147;DHT22;10234;50.856;15.716;2024-01-15T10:38:00;1.20;98.10
20147;DHT22;10234;50.856;15.716;2024-01-15T10:40:27;0.90;98.50
20147;DHT22;10234;50.856;15.716;2024-01-15T10:42:56;2.00;99.90
20147;DHT22;10234;50.856;15.716;2024-01-15T10:45:23;1.40;99.90
20147;DHT22;10234;50.856;15.716;2024-01-15T10:47:51;3.90;99.90
20147;DHT22;10234;50.856;15.716;2024-01-15T10:50:18;0.80;99.90
20147;DHT22;10234;50.856;15.716;2024-01-15T10:52:46;1.30;99.10
20147;DHT22;10234;50.856;15.716;2024-01-15T10:55:13;2.20;98.90
20147;DHT22;10234;50.856;15.716;2024-01-15T10:57:39;1.40;98.30
20147;DHT22;10234;50.856;15.716;2024-01-15T11:00:09;1.50;98.30
20147;DHT22;10234;50.856;15.716;2024-01-15T11:02:40;1.60;98.20
20147;DHT22;10234;50.856;15.716;2024-01-15T11:05:10;1.60;97.40
20147;DHT22;10234;50.856;15.716;2024-01-15T11:07:39;1.50;98.60
20147;DHT22;10234;50.856;15.716;2024-01-15T11:10:07;1.40;97.40
20147;DHT22;10234;50.856;15.716;2024-01-15T11:12:35;1.30;97.80
20147;DHT22;10234;50.856;15.716;2024-01-15T11:15:03;1.20;98.10
20147;DHT22;10234;50.856;15.716;2024-01-15T11:17:57;1.20;97.80
20147;DHT22;10234;50.856;15.716;2024-01-15T11:20:24;1.30;97.90
20147;DHT22;10234;50.856;15.716;2024-01-15T11:22:51;1.30;97.80
20147;DHT22;10234;50.856;15.716;2024-01-15T11:25:19;1.30;98.00
20147;DHT22;10234;50.856;15.716;2024-01-15T11:27:47;1.40;97.60
20147;DHT22;10234;50.856;15.716;2024-01-15T11:30:17;1.40;97.30
20147;DHT22;10234;50.856;15.716;2024-01-15T11:32:46;1.40;97.30
20147;DHT22;10234;50.856;15.716;2024-01-15T11:35:14;1.40;96.90
20147;DHT22;10234;50.856;15.716;2024-01-15T11:37:57;1.20;96.90
20147;DHT22;10234;50.856;15.716;2024-01-15T11:40:37;1.70;97.20
20147;DHT22;10234;50.856;15.716;2024-01-15T11:43:05;1.10;97.60
20147;DHT22;10234;50.856;15.716;2024-01-15T11:45:32;1.00;97.60
20147;DHT22;10234;50.856;15.716;2024-01-15T11:48:12;0.90;97.00
20147;DHT22;10234;50.856;15.716;2024-01-15T11:50:41;1.10;98.30
20147;DHT22;10234;50.856;15.716;2024-01-15T11:53:17;1.00;97.60
20147;DHT22;10234;50.856;15.716;2024-01-15T11:55:45;1.00;97.50
20147;DHT22;10234;50.856;15.716;2024-01-15T11:58:14;1.00;97.20
20147;DHT22;10234;50.856;15.716;2024-01-15T12:00:44;0.90;97.90
20147;DHT22;10234;50.856;15.716;2024-01-15T12:03:12;1.60;98.30
20147;DHT22;10234;50.856;15.716;2024-01-15T12:05:40;1.20;98.10
20147;DHT22;10234;50.856;15.716;2024-01-15T12:08:07;1.40;96.80
20147;DHT22;10234;50.856;15.716;2024-01-15T12:10:36;1.40;96.70
20147;DHT22;10234;50.856;15.716;2024-01-15T12:13:05;1.50;96.80
20147;DHT22;10234;50.856;15.716;2024-01-15T12:15:33;1.50;96.20
20147;DHT22;10234;50.856;15.716;2024-01-15T12:18:01;1.70;96.00
20147;DHT22;10234;50.856;15.716;2024-01-15T12:20:32;2.10;96.30
20147;DHT22;10234;50.856;15.716;2024-01-15T12:23:00;2.10;95.60
20147;DHT22;10234;50.856;15.716;2024-01-15T12:25:29;1.70;95.40
20147;DHT22;10234;50.856;15.716;2024-01-15T12:27:58;1.60;95.30
20147;DHT22;10234;50.856;15.716;2024-01-15T12:30:26;1.50;95.30
20147;DHT22;10234;50.856;15.716;2024-01-15T12:32:54;1.50;95.30
20147;DHT22;10234;50.856;15.716;2024-01-15T12:35:21;1.50;95.90
20147;DHT22;10234;50.856;15.716;2024-01-15T12:37:49;2.00;98.60
20147;DHT22;10234;50.856;15.716;2024-01-15T12:40:19;2.10;94.70
20147;DHT22;10234;50.856;15.716;2024-01-15T12:42:46;2.60;94.80
20147;DHT22;10234;50.856;15.716;2024-01-15T12:45:13;3.60;93.20
20147;DHT22;10234;50.856;15.716;2024-01-15T12:47:42;3.60;91.80
20147;DHT22;10234;50.856;15.716;2024-01-15T12:50:10;3.80;92.00
20147;DHT22;10234;50.856;15.716;2024-01-15T12:52:41;3.70;91.80
20147;DHT22;10234;50.856;15.716;2024-01-15T12:55:09;4.90;92.40
20147;DHT22;10234;50.856;15.716;2024-01-15T12:57:37;2.80;92.40
20147;DHT22;10234;50.856;15.716;2024-01-15T13:00:05;2.50;93.00
20147;DHT22;10234;50.856;15.716;2024-01-15T13:02:33;2.30;93.50
20147;DHT22;10234;50.856;15.716;2024-01-15T13:05:00;2.10;93.90
20147;DHT22;10234;50.856;15.716;2024-01-15T13:07:29;2.90;94.30
20147;DHT22;10234;50.856;15.716;2024-01-15T13:09:56;1.50;94.60
20147;DHT22;10234;50.856;15.716;2024-01-15T13:12:24;1.20;95.70
20147;DHT22;10234;50.856;15.716;2024-01-15T13:14:51;1.20;95.70
20147;DHT22;10234;50.856;15.716;2024-01-15T13:17:18;1.10;96.30
20147;DHT22;10234;50.856;15.716;2024-01-15T13:19:46;0.90;96.50
20147;DHT22;10234;50.856;15.716;2024-01-15T13:22:13;1.00;96.60
20147;DHT22;10234;50.856;15.716;2024-01-15T13:24:40;1.30;96.60
20147;DHT22;10234;50.856;15.716;2024-01-15T13:27:07;1.00;96.50
20147;DHT22;10234;50.856;15.716;2024-01-15T13:29:35;1.50;96.50
20147;DHT22;10234;50.856;15.716;2024-01-15T13:39:24;1.10;99.90
20147;DHT22;10234;50.856;15.716;2024-01-15T13:46:47;0.60;97.20
20147;DHT22;10234;50.856;15.716;2024-01-15T13:51:41;0.80;99.90
20147;DHT22;10234;50.856;15.716;2024-01-15T13:54:08;0.70;99.90
20147;DHT22;10234;50.856;15.716;2024-01-15T14:06:27;0.60;99.90
20147;DHT22;10234;50.856;15.716;2024-01-15T14:08:54;0.30;99.90
20147;DHT22;10234;50.856;15.716;2024-01-15T14:18:42;0.30;99.90
20147;DHT22;10234;50.856;15.716;2024-01-15T14:21:10;0.10;99.90
20147;DHT22;10234;50.856;15.716;2024-01-15T14:26:04;-0.10;99.90
20147;DHT22;10234;50.856;15.716;2024-01-15T14:30:58;0.00;99.90
20147;DHT22;10234;50.856;15.716;2024-01-15T14:35:53;0.10;99.90
20147;DHT22;10234;50.856;15.716;2024-01-15T14:38:21;0.00;99.90
20147;DHT22;10234;50.856;15.716;2024-01-15T14:40:51;-0.10;99.90
20147;DHT22;10234;50.856;15.716;2024-01-15T14:43:20;-0.20;99.90
20147;DHT22;10234;50.856;15.716;2024-01-15T15:00:34;0.00;99.90
20147;DHT22;10234;50.856;15.716;2024-01-15T15:10:23;-0.60;99.90
20147;DHT22;10234;50.856;15.716;2024-01-15T15:12:54;-0.80;99.90
20147;DHT22;10234;50.856;15.716;2024-01-15T15:17:53;-0.60;99.90
20147;DHT22;10234;50.856;15.716;2024-01-15T15:20:20;-0.70;99.90
20147;DHT22;10234;50.856;15.716;2024-01-15T15:32:52;-0.50;99.90
20147;DHT22;10234;50.856;15.716;2024-01-15T15:40:13;-0.80;99.90
20147;DHT22;10234;50.856;15.716;2024-01-15T15:42:40;-0.40;99.90
20147;DHT22;10234;50.856;15.716;2024-01-15T15:45:08;-1.00;99.90
20147;DHT22;10234;50.856;15.716;2024-01-15T15:47:35;-0.90;99.90
20147;DHT22;10234;50.856;15.716;2024-01-15T15:50:04;-0.60;99.90
20147;DHT22;10234;50.856;15.716;2024-01-15T15:52:31;-0.30;99.90
20147;DHT22;10234;50.856;15.716;2024-01-15T15:54:58;-0.60;99.90
20147;DHT22;10234;50.856;15.716;2024-01-15T15:57:27;-0.30;99.90
20147;DHT22;10234;50.856;15.716;2024-01-15T15:59:53;-0.50;99.90
20147;DHT22;10234;50.856;15.716;2024-01-15T16:02:20;-0.80;99.90
20147;DHT22;10234;50.856;15.716;2024-01-15T16:04:47;-0.30;99.90
20147;DHT22;10234;50.856;15.716;2024-01-15T16:07:14;0.10;99.90
20147;DHT22;10234;50.856;15.716;2024-01-15T16:12:08;0.10;99.90
20147;DHT22;10234;50.856;15.716;2024-01-15T16:19:29;-0.20;99.90
20147;DHT22;10234;50.856;15.716;2024-01-15T16:21:56;-0.30;99.90
20147;DHT22;10234;50.856;15.716;2024-01-15T16:24:24;-0.50;99.90
20147;DHT22;10234;50.856;15.716;2024-01-15T16:26:51;-0.90;99.90
20147;DHT22;10234;50.856;15.716;2024-01-15T16:29:18;0.10;99.90
20147;DHT22;10234;50.856;15.716;2024-01-15T16:31:45;-0.40;99.90
20147;DHT22;10234;50.856;15.716;2024-01-15T16:34:12;-0.60;99.90
20147;DHT22;10234;50.856;15.716;2024-01-15T16:41:35;-0.10;99.90
20147;DHT22;10234;50.856;15.716;2024-01-15T16:46:29;-0.40;99.90
20147;DHT22;10234;50.856;15.716;2024-01-15T16:51:22;-0.40;99.90
20147;DHT22;10234;50.856;15.716;2024-01-15T16:53:49;0.00;99.90
20147;DHT22;10234;50.856;15.716;2024-01-15T16:56:17;-0.40;99.90
20147;DHT22;10234;50.856;15.716;2024-01-15T16:58:45;-0.20;99.90
20147;DHT22;10234;50.856;15.716;2024-01-15T17:03:39;0.00;99.90
20147;DHT22;10234;50.856;15.716;2024-01-15T17:08:33;0.10;99.90